createdAt,value
2023-01-01T00:00:54.002Z,96506.15
2023-01-01T00:03:42.390Z,96505.46
2023-01-01T00:06:13.024Z,96504.57
2023-01-01T00:08:41.408Z,96506.89
2023-01-01T00:11:10.646Z,96508.83
2023-01-01T00:13:41.178Z,96511.23
2023-01-01T00:16:14.774Z,96508.08
2023-01-01T00:18:42.893Z,96509.67
2023-01-01T00:21:14.508Z,96513.66
2023-01-01T00:23:42.638Z,96512.42
2023-01-01T00:26:12.481Z,96515.44
2023-01-01T00:28:40.784Z,96518.71
2023-01-01T00:31:21.479Z,96523.84
2023-01-01T00:33:55.497Z,96530.48
2023-01-01T00:36:26.117Z,96528.21
2023-01-01T00:38:55.612Z,96527.45
2023-01-01T00:41:24.301Z,96528.08
2023-01-01T00:43:52.501Z,96522.08
2023-01-01T00:46:20.583Z,96526.33
2023-01-01T00:48:48.687Z,96525.00
2023-01-01T00:51:17.175Z,96527.35
2023-01-01T00:53:45.367Z,96526.59
2023-01-01T00:56:13.417Z,96527.90
2023-01-01T00:58:41.582Z,96520.52
2023-01-01T01:01:09.889Z,96521.48
2023-01-01T01:03:39.635Z,96522.69
2023-01-01T01:06:10.625Z,96521.83
2023-01-01T01:08:42.405Z,96518.09
2023-01-01T01:11:17.435Z,96519.34
2023-01-01T01:13:48.404Z,96521.28
2023-01-01T01:16:20.214Z,96518.98
2023-01-01T01:18:53.324Z,96519.30
2023-01-01T01:21:22.999Z,96514.35
2023-01-01T01:23:51.517Z,96521.41
2023-01-01T01:26:24.957Z,96517.41
2023-01-01T01:28:54.068Z,96517.02
2023-01-01T01:31:24.501Z,96518.38
2023-01-01T01:33:53.252Z,96515.52
2023-01-01T01:36:22.121Z,96522.60
2023-01-01T01:38:50.281Z,96517.26
2023-01-01T01:41:27.789Z,96518.33
2023-01-01T01:44:02.608Z,96520.14
2023-01-01T01:46:40.943Z,96520.11
2023-01-01T01:49:21.946Z,96517.88
2023-01-01T01:51:50.152Z,96512.05
2023-01-01T01:54:22.977Z,96515.44
2023-01-01T01:57:12.141Z,96508.73
2023-01-01T01:59:46.848Z,96507.08
2023-01-01T02:02:27.047Z,96508.13
2023-01-01T02:04:55.790Z,96507.31
2023-01-01T02:07:27.086Z,96508.48
2023-01-01T02:09:55.854Z,96507.36
2023-01-01T02:12:24.854Z,96506.45
2023-01-01T02:14:53.085Z,96502.48
2023-01-01T02:17:39.344Z,96506.45
2023-01-01T02:20:12.875Z,96497.77
2023-01-01T02:23:04.593Z,96503.30
2023-01-01T02:26:09.895Z,96500.43
2023-01-01T02:28:56.133Z,96494.54
2023-01-01T02:31:32.131Z,96494.08
2023-01-01T02:34:05.309Z,96495.21
2023-01-01T02:36:35.735Z,96495.00
2023-01-01T02:39:08.525Z,96488.41
2023-01-01T02:41:41.902Z,96483.77
2023-01-01T02:44:12.208Z,96492.27
2023-01-01T02:46:40.426Z,96490.62
2023-01-01T02:49:11.157Z,96493.69
2023-01-01T02:52:01.812Z,96491.10
2023-01-01T02:54:48.525Z,96489.08
2023-01-01T02:57:32.639Z,96489.08
2023-01-01T03:00:27.684Z,96483.94
2023-01-01T03:03:24.663Z,96484.80
2023-01-01T03:06:15.092Z,96481.78
2023-01-01T03:08:46.365Z,96482.11
2023-01-01T03:11:19.220Z,96483.11
2023-01-01T03:14:24.965Z,96483.40
2023-01-01T03:17:08.619Z,96484.91
2023-01-01T03:19:42.168Z,96489.80
2023-01-01T03:22:15.372Z,96488.42
2023-01-01T03:25:00.389Z,96488.06
2023-01-01T03:27:37.569Z,96489.44
2023-01-01T03:30:09.710Z,96493.77
2023-01-01T03:33:03.521Z,96496.57
2023-01-01T03:35:53.675Z,96495.52
2023-01-01T03:38:29.871Z,96498.19
2023-01-01T03:41:03.787Z,96505.63
2023-01-01T03:43:40.983Z,96506.93
2023-01-01T03:46:11.290Z,96508.47
2023-01-01T03:49:03.171Z,96502.00
2023-01-01T03:52:04.176Z,96501.56
2023-01-01T03:55:12.490Z,96504.92
2023-01-01T03:57:40.452Z,96503.67
2023-01-01T04:00:16.613Z,96506.05
2023-01-01T04:02:59.631Z,96502.13
2023-01-01T04:05:29.852Z,96507.34
2023-01-01T04:08:02.129Z,96512.94
2023-01-01T04:10:33.344Z,96517.83
2023-01-01T04:13:04.770Z,96514.09
2023-01-01T04:15:36.172Z,96524.02
2023-01-01T04:18:04.853Z,96514.85
2023-01-01T04:20:33.288Z,96521.27
2023-01-01T04:23:02.242Z,96523.06
2023-01-01T04:25:31.060Z,96517.66
2023-01-01T04:27:59.466Z,96517.52
2023-01-01T04:30:28.306Z,96515.05
2023-01-01T04:32:57.134Z,96511.87
2023-01-01T04:35:25.755Z,96514.63
2023-01-01T04:37:53.962Z,96521.17
2023-01-01T04:40:22.252Z,96513.25
2023-01-01T04:42:54.084Z,96516.77
2023-01-01T04:45:22.192Z,96509.69
2023-01-01T04:47:50.719Z,96507.77
2023-01-01T04:50:18.754Z,96505.48
2023-01-01T04:52:51.502Z,96506.04
2023-01-01T04:55:20.851Z,96507.91
2023-01-01T04:57:48.942Z,96509.63
2023-01-01T05:00:17.867Z,96510.50
2023-01-01T05:02:46.020Z,96511.09
2023-01-01T05:05:14.204Z,96512.28
2023-01-01T05:07:42.371Z,96511.14
2023-01-01T05:10:10.812Z,96513.23
2023-01-01T05:12:38.905Z,96520.14
2023-01-01T05:15:07.858Z,96522.85
2023-01-01T05:17:35.951Z,96527.92
2023-01-01T05:20:04.989Z,96528.82
2023-01-01T05:22:33.116Z,96531.41
2023-01-01T05:25:01.375Z,96530.78
2023-01-01T05:27:29.636Z,96527.65
2023-01-01T05:29:58.731Z,96524.92
2023-01-01T05:32:26.875Z,96517.70
2023-01-01T05:34:56.393Z,96523.01
2023-01-01T05:37:24.616Z,96524.55
2023-01-01T05:39:52.743Z,96518.77
2023-01-01T05:42:21.932Z,96520.81
2023-01-01T05:44:50.133Z,96521.58
2023-01-01T05:47:18.945Z,96523.09
2023-01-01T05:49:47.874Z,96526.89
2023-01-01T05:52:16.958Z,96532.70
2023-01-01T05:54:47.227Z,96539.60
2023-01-01T05:57:15.422Z,96540.50
2023-01-01T05:59:43.578Z,96549.04
2023-01-01T06:02:11.850Z,96555.33
2023-01-01T06:04:39.939Z,96559.63
2023-01-01T06:07:09.502Z,96564.83
2023-01-01T06:09:37.645Z,96571.15
2023-01-01T06:12:06.428Z,96579.27
2023-01-01T06:14:34.534Z,96577.36
2023-01-01T06:17:02.723Z,96581.39
2023-01-01T06:19:30.859Z,96583.27
2023-01-01T06:21:58.911Z,96586.26
2023-01-01T06:24:27.120Z,96586.05
2023-01-01T06:26:55.261Z,96590.51
2023-01-01T06:29:23.390Z,96591.17
2023-01-01T06:31:51.490Z,96592.89
2023-01-01T06:34:19.522Z,96595.52
2023-01-01T06:36:47.686Z,96599.80
2023-01-01T06:39:16.114Z,96598.30
2023-01-01T06:41:44.173Z,96602.20
2023-01-01T06:44:12.297Z,96605.58
2023-01-01T06:46:40.419Z,96612.05
2023-01-01T06:49:11.873Z,96610.66
2023-01-01T06:51:41.895Z,96604.55
2023-01-01T06:54:11.025Z,96608.42
2023-01-01T06:56:39.586Z,96612.48
2023-01-01T06:59:07.690Z,96619.90
2023-01-01T07:01:38.052Z,96621.48
2023-01-01T07:04:08.581Z,96620.36
2023-01-01T07:06:37.295Z,96617.91
2023-01-01T07:09:07.090Z,96619.31
2023-01-01T07:11:35.915Z,96624.43
2023-01-01T07:14:04.782Z,96620.38
2023-01-01T07:16:33.000Z,96619.52
2023-01-01T07:19:01.449Z,96623.36
2023-01-01T07:21:54.446Z,96631.88
2023-01-01T07:24:22.811Z,96633.39
2023-01-01T07:26:52.135Z,96644.30
2023-01-01T07:29:20.276Z,96645.05
2023-01-01T07:31:48.446Z,96641.25
2023-01-01T07:34:19.955Z,96638.73
2023-01-01T07:36:48.431Z,96643.38
2023-01-01T07:39:17.311Z,96643.92
2023-01-01T07:41:46.168Z,96642.98
2023-01-01T07:44:15.033Z,96646.73
2023-01-01T07:46:43.249Z,96655.34
2023-01-01T07:49:11.864Z,96661.09
2023-01-01T07:51:40.209Z,96661.56
2023-01-01T07:54:08.354Z,96664.54
2023-01-01T07:56:37.182Z,96671.43
2023-01-01T07:59:05.648Z,96673.19
2023-01-01T08:01:39.346Z,96681.94
2023-01-01T08:04:14.927Z,96687.60
2023-01-01T08:06:43.056Z,96689.00
2023-01-01T08:09:11.469Z,96692.42
2023-01-01T08:11:39.602Z,96692.36
2023-01-01T08:14:07.733Z,96697.60
2023-01-01T08:16:35.969Z,96698.08
2023-01-01T08:19:05.167Z,96701.35
2023-01-01T08:21:34.397Z,96708.48
2023-01-01T08:24:02.465Z,96711.84
2023-01-01T08:26:33.718Z,96714.34
2023-01-01T08:29:04.915Z,96720.98
2023-01-01T08:31:33.998Z,96725.27
2023-01-01T08:34:02.403Z,96724.33
2023-01-01T08:36:30.968Z,96730.61
2023-01-01T08:38:59.404Z,96738.52
2023-01-01T08:41:27.501Z,96739.63
2023-01-01T08:43:55.752Z,96744.23
2023-01-01T08:46:24.203Z,96743.48
2023-01-01T08:48:52.756Z,96748.11
2023-01-01T08:51:21.031Z,96745.65
2023-01-01T08:53:51.476Z,96745.81
2023-01-01T08:56:20.696Z,96753.95
2023-01-01T08:58:51.198Z,96751.98
2023-01-01T09:01:22.338Z,96747.20
2023-01-01T09:03:50.614Z,96751.21
2023-01-01T09:06:19.547Z,96745.05
2023-01-01T09:08:47.789Z,96746.31
2023-01-01T09:11:29.144Z,96743.13
2023-01-01T09:13:57.267Z,96746.34
2023-01-01T09:16:26.542Z,96749.90
2023-01-01T09:18:54.746Z,96745.77
2023-01-01T09:21:23.274Z,96743.76
2023-01-01T09:23:51.402Z,96741.80
2023-01-01T09:26:19.532Z,96736.88
2023-01-01T09:28:47.726Z,96731.44
2023-01-01T09:31:15.940Z,96726.96
2023-01-01T09:33:45.008Z,96720.78
2023-01-01T09:36:29.062Z,96714.91
2023-01-01T09:39:00.837Z,96716.85
2023-01-01T09:41:54.234Z,96718.20
2023-01-01T09:44:46.902Z,96720.27
2023-01-01T09:47:33.778Z,96714.50
2023-01-01T09:50:16.821Z,96710.83
2023-01-01T09:52:57.001Z,96709.98
2023-01-01T09:55:28.990Z,96713.47
2023-01-01T09:57:58.428Z,96715.23
2023-01-01T10:00:30.871Z,96711.76
2023-01-01T10:03:19.056Z,96710.88
2023-01-01T10:05:54.267Z,96711.59
2023-01-01T10:08:59.035Z,96705.95
2023-01-01T10:11:27.307Z,96698.10
2023-01-01T10:13:59.018Z,96696.52
2023-01-01T10:16:45.400Z,96704.51
2023-01-01T10:19:16.677Z,96695.91
2023-01-01T10:21:49.596Z,96694.22
2023-01-01T10:24:32.700Z,96689.23
2023-01-01T10:27:06.247Z,96709.46
2023-01-01T10:29:48.754Z,96710.16
2023-01-01T10:32:19.172Z,96708.16
2023-01-01T10:34:50.490Z,96707.75
2023-01-01T10:37:19.839Z,96700.85
2023-01-01T10:39:49.400Z,96700.77
2023-01-01T10:42:17.879Z,96696.90
2023-01-01T10:44:47.526Z,96697.42
2023-01-01T10:47:28.708Z,96696.20
2023-01-01T10:50:08.105Z,96695.63
2023-01-01T10:52:40.807Z,96694.71
2023-01-01T10:55:26.702Z,96697.23
2023-01-01T10:57:54.919Z,96694.04
2023-01-01T11:00:26.805Z,96694.82
2023-01-01T11:03:14.442Z,96687.41
2023-01-01T11:06:02.497Z,96679.02
2023-01-01T11:08:33.011Z,96673.95
2023-01-01T11:11:03.374Z,96674.91
2023-01-01T11:13:33.557Z,96674.88
2023-01-01T11:16:02.052Z,96672.30
2023-01-01T11:18:36.298Z,96677.87
2023-01-01T11:21:07.462Z,96671.57
2023-01-01T11:23:38.779Z,96672.70
2023-01-01T11:26:06.837Z,96671.30
2023-01-01T11:28:36.401Z,96669.55
2023-01-01T11:31:17.107Z,96666.90
2023-01-01T11:33:52.818Z,96662.58
2023-01-01T11:36:24.143Z,96661.54
2023-01-01T11:39:04.483Z,96656.14
2023-01-01T11:41:49.208Z,96658.27
2023-01-01T11:44:45.718Z,96657.36
2023-01-01T11:47:39.905Z,96658.89
2023-01-01T11:50:14.143Z,96660.60
2023-01-01T11:52:45.412Z,96666.23
2023-01-01T11:55:22.427Z,96657.45
2023-01-01T11:58:17.477Z,96658.27
2023-01-01T12:01:26.753Z,96660.99
2023-01-01T12:03:59.170Z,96656.69
2023-01-01T12:06:50.526Z,96657.44
2023-01-01T12:09:21.299Z,96658.56
2023-01-01T12:11:56.792Z,96655.61
2023-01-01T12:14:40.767Z,96656.00
2023-01-01T12:17:42.868Z,96663.04
2023-01-01T12:20:21.531Z,96666.95
2023-01-01T12:22:49.797Z,96669.73
2023-01-01T12:25:20.185Z,96670.09
2023-01-01T12:28:16.714Z,96669.64
2023-01-01T12:31:39.482Z,96667.23
2023-01-01T12:34:32.494Z,96674.52
2023-01-01T12:37:09.531Z,96672.42
2023-01-01T12:39:56.287Z,96677.74
2023-01-01T12:42:27.438Z,96673.38
2023-01-01T12:45:15.419Z,96672.94
2023-01-01T12:48:27.632Z,96668.39
2023-01-01T12:51:16.357Z,96664.91
2023-01-01T12:53:47.273Z,96659.22
2023-01-01T12:56:30.999Z,96660.10
2023-01-01T12:59:04.545Z,96657.76
2023-01-01T13:01:35.502Z,96655.13
2023-01-01T13:04:12.265Z,96654.69
2023-01-01T13:07:03.629Z,96645.42
2023-01-01T13:09:39.521Z,96646.56
2023-01-01T13:12:19.125Z,96644.30
2023-01-01T13:14:52.260Z,96648.20
2023-01-01T13:17:21.945Z,96656.59
2023-01-01T13:19:57.468Z,96659.33
2023-01-01T13:22:26.190Z,96663.48
2023-01-01T13:25:09.296Z,96668.47
2023-01-01T13:28:03.604Z,96675.68
2023-01-01T13:30:38.310Z,96675.88
2023-01-01T13:33:29.192Z,96674.86
2023-01-01T13:36:10.339Z,96680.39
2023-01-01T13:39:01.192Z,96692.64
2023-01-01T13:41:29.376Z,96695.35
2023-01-01T13:44:00.747Z,96702.55
2023-01-01T13:46:39.189Z,96699.59
2023-01-01T13:49:16.907Z,96696.70
2023-01-01T13:52:27.026Z,96692.41
2023-01-01T13:55:53.044Z,96692.69
2023-01-01T13:58:58.000Z,96690.02
2023-01-01T14:01:45.010Z,96691.17
2023-01-01T14:04:29.362Z,96696.67
2023-01-01T14:07:33.240Z,96696.42
2023-01-01T14:10:18.032Z,96700.09
2023-01-01T14:12:46.770Z,96703.48
2023-01-01T14:15:16.309Z,96712.16
2023-01-01T14:17:45.055Z,96711.88
2023-01-01T14:20:19.311Z,96711.44
2023-01-01T14:22:49.285Z,96713.15
2023-01-01T14:25:26.749Z,96716.03
2023-01-01T14:27:58.345Z,96714.44
2023-01-01T14:30:33.196Z,96719.85
2023-01-01T14:33:03.135Z,96718.48
2023-01-01T14:35:31.535Z,96720.13
2023-01-01T14:38:23.960Z,96721.30
2023-01-01T14:41:17.978Z,96724.27
2023-01-01T14:43:49.548Z,96733.92
2023-01-01T14:46:25.612Z,96738.65
2023-01-01T14:48:58.350Z,96736.73
2023-01-01T14:51:29.589Z,96736.21
2023-01-01T14:54:03.695Z,96732.37
2023-01-01T14:56:37.855Z,96735.77
2023-01-01T14:59:26.852Z,96741.48
2023-01-01T15:02:04.598Z,96737.80
2023-01-01T15:04:32.943Z,96739.94
2023-01-01T15:07:02.088Z,96739.45
2023-01-01T15:09:32.294Z,96742.00
2023-01-01T15:12:00.783Z,96749.54
2023-01-01T15:14:37.934Z,96755.05
2023-01-01T15:17:08.748Z,96760.38
2023-01-01T15:19:41.385Z,96762.13
2023-01-01T15:22:12.593Z,96766.08
2023-01-01T15:24:41.032Z,96766.96
2023-01-01T15:27:26.452Z,96769.73
2023-01-01T15:29:57.217Z,96766.17
2023-01-01T15:32:43.235Z,96775.73
2023-01-01T15:35:31.703Z,96782.28
2023-01-01T15:38:10.582Z,96786.83
2023-01-01T15:40:40.328Z,96790.48
2023-01-01T15:43:24.056Z,96791.38
2023-01-01T15:45:58.711Z,96797.61
2023-01-01T15:48:37.710Z,96794.37
2023-01-01T15:51:17.050Z,96797.16
2023-01-01T15:53:47.383Z,96796.54
2023-01-01T15:56:16.923Z,96797.39
2023-01-01T15:58:55.697Z,96797.80
2023-01-01T16:01:27.820Z,96800.47
2023-01-01T16:04:09.946Z,96795.94
2023-01-01T16:06:52.735Z,96798.42
2023-01-01T16:09:22.061Z,96803.77
2023-01-01T16:11:54.528Z,96802.19
2023-01-01T16:14:23.528Z,96805.04
2023-01-01T16:16:57.356Z,96810.72
2023-01-01T16:19:26.463Z,96805.70
2023-01-01T16:21:54.616Z,96807.10
2023-01-01T16:24:22.749Z,96802.45
2023-01-01T16:26:51.270Z,96804.70
2023-01-01T16:29:19.345Z,96811.17
2023-01-01T16:31:48.476Z,96805.09
2023-01-01T16:34:16.630Z,96813.38
2023-01-01T16:36:45.685Z,96814.61
2023-01-01T16:39:13.850Z,96823.44
2023-01-01T16:41:43.648Z,96815.08
2023-01-01T16:44:15.613Z,96817.20
2023-01-01T16:46:44.301Z,96825.16
2023-01-01T16:49:12.541Z,96825.98
2023-01-01T16:51:44.106Z,96827.13
2023-01-01T16:54:12.587Z,96827.64
2023-01-01T16:56:40.653Z,96826.13
2023-01-01T16:59:08.881Z,96823.80
2023-01-01T17:01:38.523Z,96823.16
2023-01-01T17:04:07.116Z,96823.02
2023-01-01T17:06:38.139Z,96822.17
2023-01-01T17:09:07.000Z,96822.56
2023-01-01T17:11:36.119Z,96824.09
2023-01-01T17:14:06.427Z,96819.35
2023-01-01T17:16:38.954Z,96816.64
2023-01-01T17:19:16.240Z,96815.64
2023-01-01T17:21:50.466Z,96814.14
2023-01-01T17:24:20.550Z,96816.52
2023-01-01T17:26:53.877Z,96820.48
2023-01-01T17:29:23.159Z,96819.19
2023-01-01T17:31:52.381Z,96821.54
2023-01-01T17:34:20.633Z,96825.16
2023-01-01T17:36:49.693Z,96826.68
2023-01-01T17:39:21.007Z,96826.45
2023-01-01T17:41:49.323Z,96831.32
2023-01-01T17:44:17.449Z,96833.14
2023-01-01T17:46:47.822Z,96835.55
2023-01-01T17:49:15.966Z,96838.77
2023-01-01T17:51:44.181Z,96844.54
2023-01-01T17:54:13.891Z,96844.98
2023-01-01T17:56:42.446Z,96848.48
2023-01-01T17:59:10.765Z,96850.91
2023-01-01T18:01:39.088Z,96853.44
2023-01-01T18:04:09.066Z,96849.63
2023-01-01T18:06:43.118Z,96846.48
2023-01-01T18:09:14.189Z,96848.84
2023-01-01T18:11:44.058Z,96849.45
2023-01-01T18:14:13.455Z,96852.10
2023-01-01T18:16:44.336Z,96851.75
2023-01-01T18:19:12.575Z,96853.37
2023-01-01T18:21:43.173Z,96852.65
2023-01-01T18:24:14.278Z,96849.32
2023-01-01T18:26:42.946Z,96850.51
2023-01-01T18:29:11.119Z,96848.34
2023-01-01T18:31:39.220Z,96846.54
2023-01-01T18:34:07.569Z,96848.20
2023-01-01T18:36:35.862Z,96849.14
2023-01-01T18:39:16.147Z,96850.16
2023-01-01T18:42:15.514Z,96848.69
2023-01-01T18:44:44.021Z,96846.76
2023-01-01T18:47:20.017Z,96844.00
2023-01-01T18:49:54.297Z,96841.15
2023-01-01T18:52:27.346Z,96844.36
2023-01-01T18:55:02.096Z,96843.65
2023-01-01T18:57:30.285Z,96846.62
2023-01-01T19:00:00.722Z,96851.77
2023-01-01T19:02:43.404Z,96852.27
2023-01-01T19:05:32.002Z,96852.18
2023-01-01T19:08:09.332Z,96848.33
2023-01-01T19:10:43.100Z,96853.56
2023-01-01T19:13:23.608Z,96853.58
2023-01-01T19:15:57.508Z,96854.37
2023-01-01T19:18:32.289Z,96855.04
2023-01-01T19:21:12.793Z,96859.05
2023-01-01T19:23:50.614Z,96857.92
2023-01-01T19:26:40.423Z,96862.19
2023-01-01T19:29:18.905Z,96866.42
2023-01-01T19:31:50.160Z,96865.66
2023-01-01T19:34:18.730Z,96868.23
2023-01-01T19:36:47.195Z,96872.11
2023-01-01T19:39:17.465Z,96872.91
2023-01-01T19:41:46.177Z,96877.58
2023-01-01T19:44:17.284Z,96882.17
2023-01-01T19:46:48.825Z,96883.73
2023-01-01T19:49:17.876Z,96884.96
2023-01-01T19:51:46.037Z,96883.69
2023-01-01T19:54:14.280Z,96882.94
2023-01-01T19:56:42.478Z,96885.05
2023-01-01T19:59:10.565Z,96885.59
2023-01-01T20:01:38.825Z,96884.59
2023-01-01T20:04:07.177Z,96889.78
2023-01-01T20:06:36.540Z,96888.89
2023-01-01T20:09:04.812Z,96892.80
2023-01-01T20:11:33.448Z,96893.59
2023-01-01T20:14:01.824Z,96894.45
2023-01-01T20:16:29.914Z,96897.86
2023-01-01T20:18:58.143Z,96895.31
2023-01-01T20:21:45.390Z,96891.88
2023-01-01T20:24:13.542Z,96886.87
2023-01-01T20:26:41.646Z,96887.06
2023-01-01T20:29:21.894Z,96889.63
2023-01-01T20:31:53.011Z,96888.79
2023-01-01T20:34:23.035Z,96891.30
2023-01-01T20:37:10.445Z,96895.05
2023-01-01T20:39:39.659Z,96892.56
2023-01-01T20:42:08.496Z,96888.70
2023-01-01T20:44:36.989Z,96889.93
2023-01-01T20:47:05.237Z,96889.23
2023-01-01T20:49:33.493Z,96888.51
2023-01-01T20:52:02.951Z,96883.98
2023-01-01T20:54:31.133Z,96881.86
2023-01-01T20:56:59.311Z,96881.54
2023-01-01T20:59:38.532Z,96885.95
2023-01-01T21:02:11.434Z,96885.27
2023-01-01T21:04:40.559Z,96894.70
2023-01-01T21:07:10.465Z,96898.51
2023-01-01T21:09:40.750Z,96897.79
2023-01-01T21:12:09.924Z,96897.98
2023-01-01T21:14:38.078Z,96901.86
2023-01-01T21:17:21.474Z,96902.17
2023-01-01T21:19:52.157Z,96896.61
2023-01-01T21:22:20.955Z,96894.42
2023-01-01T21:24:53.997Z,96891.48
2023-01-01T21:27:34.046Z,96891.44
2023-01-01T21:30:04.898Z,96887.48
2023-01-01T21:32:42.339Z,96893.92
2023-01-01T21:35:23.347Z,96889.76
2023-01-01T21:37:58.000Z,96890.52
2023-01-01T21:40:40.305Z,96897.56
2023-01-01T21:43:13.882Z,96896.08
2023-01-01T21:45:47.525Z,96895.23
2023-01-01T21:48:24.503Z,96898.80
2023-01-01T21:50:52.825Z,96897.76
2023-01-01T21:53:24.321Z,96896.77
2023-01-01T21:55:54.993Z,96896.73
2023-01-01T21:58:53.081Z,96895.73
2023-01-01T22:01:25.985Z,96894.52
2023-01-01T22:04:10.480Z,96894.48
2023-01-01T22:06:50.180Z,96895.48
2023-01-01T22:09:33.879Z,96895.26
2023-01-01T22:12:14.510Z,96894.10
2023-01-01T22:14:49.578Z,96899.10
2023-01-01T22:17:29.622Z,96903.23
2023-01-01T22:20:19.829Z,96898.61
2023-01-01T22:22:49.629Z,96901.52
2023-01-01T22:25:26.999Z,96897.28
2023-01-01T22:27:55.771Z,96899.17
2023-01-01T22:30:41.667Z,96896.70
2023-01-01T22:33:17.845Z,96891.80
2023-01-01T22:35:45.833Z,96894.22
2023-01-01T22:38:22.292Z,96893.22
2023-01-01T22:40:52.227Z,96893.96
2023-01-01T22:43:29.886Z,96886.65
2023-01-01T22:45:58.617Z,96889.27
2023-01-01T22:48:34.142Z,96889.59
2023-01-01T22:51:07.284Z,96886.16
2023-01-01T22:53:35.400Z,96883.11
2023-01-01T22:56:03.646Z,96876.14
2023-01-01T22:58:31.678Z,96873.02
2023-01-01T23:00:59.951Z,96877.36
2023-01-01T23:03:28.098Z,96877.61
2023-01-01T23:05:56.700Z,96881.55
2023-01-01T23:08:25.915Z,96877.23
2023-01-01T23:10:54.584Z,96878.11
2023-01-01T23:13:41.573Z,96880.04
2023-01-01T23:16:09.921Z,96879.86
2023-01-01T23:18:38.121Z,96875.74
2023-01-01T23:21:13.314Z,96874.35
2023-01-01T23:23:41.953Z,96878.75
2023-01-01T23:26:10.995Z,96872.06
2023-01-01T23:28:39.971Z,96869.37
2023-01-01T23:31:11.887Z,96865.79
2023-01-01T23:33:41.061Z,96867.41
2023-01-01T23:36:09.753Z,96869.65
2023-01-01T23:38:39.349Z,96866.09
2023-01-01T23:41:07.637Z,96863.92
2023-01-01T23:43:41.159Z,96861.15
2023-01-01T23:46:13.133Z,96857.48
2023-01-01T23:48:45.221Z,96852.48
2023-01-01T23:51:14.289Z,96847.86
2023-01-01T23:53:42.437Z,96850.41
2023-01-01T23:56:10.710Z,96850.80
2023-01-01T23:58:39.062Z,96850.83
